AirNav   Air Wisconsin Up To $57,000 Bonus
 
 572 users online  

32MI William Beaumont Hospital Heliport
Royal Oak, Michigan, USA

GOING TO ROYAL OAK?


FAA INFORMATION EFFECTIVE 02 JANUARY 2020

Location

FAA Identifier: 32MI
Lat/Long: 42-30-54.2800N 083-11-39.0000W
42-30.904667N 083-11.650000W
42.5150778,-83.1941667
(estimated)
Elevation: 771 ft. / 235 m (estimated)
Variation: 06W (1990)
From city: 1 mile W of ROYAL OAK, MI
Time zone: UTC -5 (UTC -4 during Daylight Saving Time)
Zip code: 48073

Heliport Operations

Heliport use: Private use, MEDICAL USE.
Activation date: 03/1993
Control tower: no
ARTCC: CLEVELAND CENTER
FSS: LANSING FLIGHT SERVICE STATION
Attendance: CONTINUOUS
Segmented circle: no
Lights: SS-SR

Heliport Communications

WX AWOS-3 at VLL (1.8 nm NE): 119.475 (248-288-4649)
WX ASOS at DET (10 nm SE): PHONE 313-371-9696
WX ASOS at PTK (13 nm NW): 125.025 (248-886-8551)
WX ASOS at DTW (19 nm S): 133.675 (734-955-5015)

Nearby radio navigation aids

VOR radial/distance  VOR name  Freq  Var
SVMr073/18.8SALEM VORTAC114.3003W
DXOr029/19.7DETROIT VOR/DME113.4006W
YQGr321/22.7WINDSOR VOR/DME113.8006W
CRLr026/30.4CARLETON VOR/DME115.7003W
FNTr144/36.4FLINT VORTAC116.9006W

 
NDB name  Hdg/Dist  Freq  Var  ID
GROSSE ILE003/24.941907WRYS .-. -.-- ...

Heliport Services

Runway Information

Helipad H1

Dimensions: 53 x 53 ft. / 16 x 16 m
Surface: concrete
Runway edge lights: PERI
Latitude: 42-30.904667N
Longitude: 083-11.650000W
Elevation: 771.0 ft.
Traffic pattern: leftleft
Obstructions: bldg
H1 116 FT BLDG 120 FT E; 130 FT CHIMNEYS 235 FT S; 33 FT LGT POLES IN VCNTY.

Heliport Ownership and Management from official FAA records

Ownership: Privately-owned
Owner: WILLIAM BEAUMONT HOSPITAL
3601 W 13 MILE RD
ROYAL OAK, MI 48072
Manager: CHRISTINE LAKING
3601 W 13 MILE RD
ROYAL OAK, MI 48072
Phone (248) 898-2691

Additional Remarks

FOR CD CTC DETROIT APCH AT 800-499-8181.

Instrument Procedures

There are no published instrument procedures at 32MI.

Some nearby airports with instrument procedures:

KVLL - Oakland/Troy Airport (2 nm NE)
KDET - Coleman A Young Municipal Airport (10 nm SE)
KPTK - Oakland County International Airport (13 nm NW)
1D2 - Canton-Plymouth-Mettetal Airport (15 nm SW)
KMTC - Selfridge Air National Guard Base (17 nm E)
57D - Ray Community Airport (19 nm NE)
Y47 - Oakland Southwest Airport (19 nm W)
D98 - Romeo State Airport (19 nm NE)
KDTW - Detroit Metropolitan Wayne County Airport (19 nm S)
 
Loc | Ops | Rwys | IFR | FBO | Links
Com | Nav | Svcs | Stats | Notes
Area around 32MI (William Beaumont Hospital Heliport)
 
Road maps at: MapQuest Bing Google
 
Aerial photo
No photo
 
Sectional chart

 
Airport distance calculator
Flying to William Beaumont Hospital Heliport? Find the distance to fly.

From to 32MI

Sunrise and sunset
Times for 18-Jan-2020
 Local
(UTC-5)
 Zulu
(UTC)
Morning civil twilight07:2812:28
Sunrise07:5912:59
Sunset17:2722:27
Evening civil twilight17:5822:58

Current date and time
Zulu (UTC)  18-Jan-2020 09:25:10
Local (UTC-5)  18-Jan-2020 04:25:10
 
METAR
KVLL 
2nm NE 
180856Z AUTO 12010G17KT 1 1/4SM -SN OVC008 M03/M03 A3023 RMK AO2 T10271031
KDET 
10nm SE 
180856Z 12019G30KT 1 3/4SM -SN BR BKN008 OVC013 M03/M03 A3023 RMK AO2 P0000 T10281033
KPTK 
13nm NW 
180853Z AUTO 11016G27KT 1 1/4SM -SN BR BKN010 OVC016 M04/M06 A3015 RMK AO2 PK WND 10027/0844 PRESFR SLP223 P0000 60000 T10391056 58076 $
KMTC 
18nm E 
180856Z AUTO 09018G25KT 3SM -UP BR OVC010 M03/M03 A3021 RMK AO2 SNE15UPB15 CIG 007 RWY01 PRESFR SLP244 P0000 60000 T10281028 57075
CYQG 
18nm SE 
180856Z AUTO 11015G21KT 1SM R25/P6000FT/D -SN OVC010 M03/M04 A3022 RMK PRESFR SLP246
KDTW 
18nm S 
180855Z 11011G18KT 1/2SM R03R/P6000FT -SN BKN007 OVC013 M03/M04 A3021 RMK AO2 SFC VIS 3/4 P0000 T10281039 $
TAF
KDET 
10nm SE 
180529Z 1806/1906 11012KT 2SM -SN BKN015 OVC025 TEMPO 1806/1810 11012KT 1/2SM SN BKN005 OVC015 FM181000 12012KT 1/4SM +SN VV003 FM181300 14015G20KT 1SM -SNPL OVC006 FM181500 17016G25KT 3SM -DZ BKN008 OVC018 FM182000 26022G32KT P6SM BKN022 OVC035
KPTK 
13nm NW 
180529Z 1806/1906 11012KT 3/4SM -SN BKN012 OVC025 TEMPO 1806/1810 11012KT 1/2SM SN BKN005 OVC012 FM181000 12010KT 1/4SM +SN VV002 FM181400 15013G20KT 1SM -SNPL OVC006 FM181500 17014G22KT 2SM -DZ BR OVC008 FM182000 26022G32KT P6SM BKN022 OVC035
KMTC 
18nm E 
180228Z 1802/1907 13012KT 9999 OVC020 620206 QNH3044INS BECMG 1806/1807 12012KT 4800 -SN BKN015 OVC020 620157 QNH3027INS BECMG 1808/1809 12012KT 4800 -SN OVC007 620079 510054 QNH2967INS BECMG 1816/1817 16015G25KT 6000 -RA OVC003 620079 530055 QNH2955INS BECMG 1823/1824 25025G35KT 4800 -SN OVC015 620156 530005 QNH2959INS TX02/1821Z TNM05/1809Z LAST NO AMDS AFT 1804 NEXT 1809
CYQG 
18nm SE 
180540Z 1806/1906 10012KT 11/2SM -SN OVC012 TEMPO 1806/1807 4SM -SN OVC020 FM180630 11012KT 11/2SM -SN OVC012 TEMPO 1806/1809 3/4SM -SN VV006 FM180900 14012G22KT 3/4SM -SN VV006 PROB30 1811/1815 3/8SM SN PLSN VV004 FM181600 17015G28KT 1SM -SNRA BR OVC007 FM181800 19018G30KT 21/2SM -RA -DZ BR OVC008 FM182100 23015G25KT 3SM -SHRA BR OVC008 FM182300 26020G35KT P6SM -SHSNRA BKN015 OVC030 FM190200 27018G30KT P6SM -SHSN BKN020 OVC040 PROB30 1902/1906 2SM -SHSN RMK FCST BASED ON AUTO OBS. NXT FCST BY 1
KDTW 
18nm S 
180529Z 1806/1912 11012KT 1SM -SN BKN012 OVC025 TEMPO 1806/1810 11012KT 1/2SM SN BKN005 OVC012 FM181000 12012KT 1/4SM +SN VV003 FM181300 14015G20KT 1SM -SNPL OVC006 FM181500 17016G25KT 3SM -DZ BKN008 OVC018 FM182000 26022G32KT P6SM BKN022 OVC035 TEMPO 1901/1905 3SM -SHSN BKN012 OVC022
NOTAMs
Click for the latest NOTAMs
NOTAMs are issued by the DoD/FAA and will open in a separate window not controlled by AirNav.

 

 
 

Would you like to see your business listed on this page?

 If your business provides an interesting product or service to pilots, flight crews, aircraft, or users of the William Beaumont Hospital Heliport, you should consider listing it here.  To start the listing process, click on the button below
 
Add a business
 

Other Pages about William Beaumont Hospital Heliport

Update a link
 
Copyright © AirNav, LLC. All rights reserved. Privacy Policy  Contact